createdAt,value
2023-03-11T00:00:23.176Z,0.70
2023-03-11T00:02:53.006Z,0.70
2023-03-11T00:05:24.204Z,0.88
2023-03-11T00:07:51.856Z,0.98
2023-03-11T00:10:30.834Z,0.73
2023-03-11T00:12:59.430Z,0.73
2023-03-11T00:15:27.463Z,0.80
2023-03-11T00:17:54.512Z,0.63
2023-03-11T00:20:24.862Z,0.70
2023-03-11T00:22:52.721Z,0.80
2023-03-11T00:25:21.738Z,0.80
2023-03-11T00:27:48.716Z,0.80
2023-03-11T00:30:16.813Z,0.85
2023-03-11T00:32:44.400Z,1.00
2023-03-11T00:35:17.586Z,0.80
2023-03-11T00:37:46.329Z,0.85
2023-03-11T00:40:15.221Z,0.93
2023-03-11T00:42:42.643Z,0.90
2023-03-11T00:45:11.340Z,0.80
2023-03-11T00:47:39.183Z,0.95
2023-03-11T00:50:10.042Z,1.00
2023-03-11T00:52:37.403Z,0.90
2023-03-11T00:55:06.019Z,0.80
2023-03-11T00:57:33.512Z,1.17
2023-03-11T01:00:01.011Z,1.05
2023-03-11T01:02:28.723Z,1.00
2023-03-11T01:04:56.748Z,0.98
2023-03-11T01:07:24.370Z,1.10
2023-03-11T01:09:51.508Z,1.50
2023-03-11T01:12:18.656Z,1.00
2023-03-11T01:14:45.587Z,1.33
2023-03-11T01:17:12.619Z,1.70
2023-03-11T01:19:39.539Z,1.70
2023-03-11T01:22:06.533Z,1.70
2023-03-11T01:24:33.609Z,1.65
2023-03-11T01:27:00.620Z,1.50
2023-03-11T01:29:27.728Z,1.42
2023-03-11T01:31:54.990Z,1.88
2023-03-11T01:34:22.088Z,1.15
2023-03-11T01:36:49.060Z,1.88
2023-03-11T01:39:16.247Z,1.45
2023-03-11T01:41:43.171Z,1.30
2023-03-11T01:44:12.969Z,1.40
2023-03-11T01:46:52.285Z,1.38
2023-03-11T01:49:23.716Z,1.20
2023-03-11T01:52:07.779Z,1.13
2023-03-11T01:54:39.425Z,1.50
2023-03-11T01:57:09.789Z,1.38
2023-03-11T01:59:40.453Z,1.70
2023-03-11T02:02:34.396Z,1.50
2023-03-11T02:05:03.402Z,1.38
2023-03-11T02:07:30.576Z,1.30
2023-03-11T02:09:57.669Z,1.75
2023-03-11T02:12:25.410Z,1.45
2023-03-11T02:14:54.598Z,1.38
2023-03-11T02:17:22.413Z,1.35
2023-03-11T02:20:18.408Z,1.60
2023-03-11T02:22:46.048Z,1.30
2023-03-11T02:25:46.261Z,1.38
2023-03-11T02:28:15.666Z,1.35
2023-03-11T02:30:44.206Z,1.40
2023-03-11T02:33:13.094Z,1.27
2023-03-11T02:35:40.401Z,1.52
2023-03-11T02:38:07.468Z,1.35
2023-03-11T02:40:40.048Z,1.33
2023-03-11T02:43:10.579Z,1.13
2023-03-11T02:45:40.110Z,1.38
2023-03-11T02:48:10.494Z,1.30
2023-03-11T02:50:37.766Z,1.10
2023-03-11T02:53:06.030Z,1.20
2023-03-11T02:55:33.791Z,3.33
2023-03-11T02:58:00.855Z,1.60
2023-03-11T03:00:28.206Z,1.30
2023-03-11T03:02:55.760Z,1.30
2023-03-11T03:05:23.161Z,1.15
2023-03-11T03:07:51.299Z,1.48
2023-03-11T03:10:19.926Z,1.38
2023-03-11T03:12:47.191Z,1.40
2023-03-11T03:15:16.001Z,1.38
2023-03-11T03:17:43.298Z,1.40
2023-03-11T03:20:11.403Z,1.10
2023-03-11T03:22:39.421Z,1.58
2023-03-11T03:25:07.337Z,1.40
2023-03-11T03:27:35.075Z,5.28
2023-03-11T03:30:02.185Z,1.58
2023-03-11T03:32:29.413Z,0.95
2023-03-11T03:34:59.157Z,1.10
2023-03-11T03:37:27.809Z,1.10
2023-03-11T03:39:55.289Z,1.10
2023-03-11T03:42:22.488Z,1.00
2023-03-11T03:44:49.565Z,1.10
2023-03-11T03:47:16.744Z,0.90
2023-03-11T03:49:43.997Z,1.02
2023-03-11T03:52:11.193Z,1.08
2023-03-11T03:54:38.167Z,1.17
2023-03-11T03:57:05.556Z,1.10
2023-03-11T03:59:32.551Z,1.48
2023-03-11T04:02:01.411Z,1.17
2023-03-11T04:04:28.651Z,1.20
2023-03-11T04:06:56.095Z,1.02
2023-03-11T04:09:23.262Z,0.90
2023-03-11T04:11:50.373Z,0.90
2023-03-11T04:14:17.597Z,1.13
2023-03-11T04:16:44.738Z,1.00
2023-03-11T04:19:12.264Z,1.00
2023-03-11T04:21:39.248Z,0.90
2023-03-11T04:24:06.567Z,1.02
2023-03-11T04:26:33.654Z,1.10
2023-03-11T04:29:00.811Z,0.98
2023-03-11T04:31:28.511Z,1.08
2023-03-11T04:33:55.870Z,0.88
2023-03-11T04:36:23.044Z,1.00
2023-03-11T04:38:50.298Z,1.00
2023-03-11T04:41:17.623Z,0.90
2023-03-11T04:43:44.904Z,1.10
2023-03-11T04:46:12.325Z,1.20
2023-03-11T04:48:39.765Z,1.15
2023-03-11T04:51:07.499Z,1.83
2023-03-11T04:53:34.965Z,1.20
2023-03-11T04:56:02.221Z,1.00
2023-03-11T04:58:29.554Z,0.90
2023-03-11T05:00:56.756Z,1.20
2023-03-11T05:03:24.603Z,1.23
2023-03-11T05:05:55.011Z,0.98
2023-03-11T05:08:22.850Z,0.90
2023-03-11T05:10:53.001Z,1.10
2023-03-11T05:13:20.872Z,1.00
2023-03-11T05:15:48.427Z,1.40
2023-03-11T05:18:15.614Z,1.08
2023-03-11T05:20:42.599Z,1.45
2023-03-11T05:23:09.635Z,1.10
2023-03-11T05:25:36.718Z,1.20
2023-03-11T05:28:04.059Z,1.40
2023-03-11T05:30:31.867Z,1.35
2023-03-11T05:32:59.046Z,1.10
2023-03-11T05:35:26.351Z,1.05
2023-03-11T05:37:54.832Z,1.23
2023-03-11T05:40:22.231Z,1.60
2023-03-11T05:42:49.265Z,1.02
2023-03-11T05:45:19.221Z,1.10
2023-03-11T05:47:46.175Z,1.23
2023-03-11T05:50:14.743Z,1.08
2023-03-11T05:52:41.818Z,1.10
2023-03-11T05:55:11.444Z,1.20
2023-03-11T05:57:39.514Z,1.02
2023-03-11T06:00:12.097Z,1.30
2023-03-11T06:02:41.048Z,1.08
2023-03-11T06:05:10.427Z,1.38
2023-03-11T06:07:38.609Z,1.38
2023-03-11T06:10:06.141Z,1.05
2023-03-11T06:12:35.286Z,1.10
2023-03-11T06:15:02.295Z,1.40
2023-03-11T06:17:30.459Z,1.40
2023-03-11T06:19:57.689Z,1.33
2023-03-11T06:22:24.963Z,1.50
2023-03-11T06:24:52.082Z,1.55
2023-03-11T06:27:19.067Z,2.67
2023-03-11T06:29:48.351Z,2.90
2023-03-11T06:32:15.945Z,1.88
2023-03-11T06:34:43.128Z,1.67
2023-03-11T06:37:10.335Z,1.33
2023-03-11T06:39:37.244Z,1.30
2023-03-11T06:42:04.432Z,1.60
2023-03-11T06:44:31.389Z,1.30
2023-03-11T06:46:58.438Z,1.50
2023-03-11T06:49:25.461Z,1.52
2023-03-11T06:51:52.952Z,1.70
2023-03-11T06:54:19.846Z,1.60
2023-03-11T06:56:46.920Z,1.50
2023-03-11T06:59:15.475Z,1.50
2023-03-11T07:01:42.390Z,2.33
2023-03-11T07:04:11.017Z,1.60
2023-03-11T07:06:38.209Z,3.20
2023-03-11T07:09:05.530Z,1.73
2023-03-11T07:11:33.208Z,3.63
2023-03-11T07:14:00.839Z,5.18
2023-03-11T07:16:30.659Z,1.50
2023-03-11T07:19:00.921Z,1.35
2023-03-11T07:21:29.571Z,1.50
2023-03-11T07:23:58.832Z,2.30
2023-03-11T07:26:27.149Z,3.20
2023-03-11T07:28:55.240Z,3.40
2023-03-11T07:31:27.568Z,2.08
2023-03-11T07:33:54.820Z,1.30
2023-03-11T07:36:24.217Z,1.50
2023-03-11T07:39:04.456Z,1.17
2023-03-11T07:41:33.604Z,1.67
2023-03-11T07:44:01.756Z,1.52
2023-03-11T07:46:30.081Z,1.23
2023-03-11T07:48:57.351Z,1.60
2023-03-11T07:51:26.856Z,1.33
2023-03-11T07:53:56.520Z,1.02
2023-03-11T07:56:28.040Z,1.42
2023-03-11T07:58:55.359Z,1.05
2023-03-11T08:01:25.190Z,1.42
2023-03-11T08:03:58.823Z,1.27
2023-03-11T08:06:31.222Z,1.38
2023-03-11T08:09:00.232Z,1.20
2023-03-11T08:11:27.523Z,1.50
2023-03-11T08:13:54.917Z,1.80
2023-03-11T08:16:22.782Z,1.08
2023-03-11T08:18:51.182Z,1.65
2023-03-11T08:21:29.173Z,2.30
2023-03-11T08:24:01.601Z,2.40
2023-03-11T08:26:28.873Z,1.45
2023-03-11T08:28:57.451Z,2.13
2023-03-11T08:31:27.888Z,2.30
2023-03-11T08:33:58.607Z,2.10
2023-03-11T08:36:26.138Z,2.38
2023-03-11T08:38:53.239Z,1.05
2023-03-11T08:41:20.319Z,1.13
2023-03-11T08:43:47.435Z,1.10
2023-03-11T08:46:33.245Z,1.10
2023-03-11T08:49:01.675Z,1.70
2023-03-11T08:51:29.616Z,1.20
2023-03-11T08:53:56.583Z,1.42
2023-03-11T08:56:23.876Z,1.60
2023-03-11T08:58:51.008Z,1.65
2023-03-11T09:01:20.224Z,1.40
2023-03-11T09:03:48.113Z,1.30
2023-03-11T09:06:17.049Z,1.13
2023-03-11T09:08:45.257Z,0.95
2023-03-11T09:11:15.240Z,1.23
2023-03-11T09:13:43.102Z,2.63
2023-03-11T09:16:14.430Z,1.00
2023-03-11T09:18:41.601Z,1.40
2023-03-11T09:21:09.664Z,1.35
2023-03-11T09:23:37.008Z,1.00
2023-03-11T09:26:04.629Z,0.80
2023-03-11T09:28:32.008Z,1.10
2023-03-11T09:30:59.385Z,0.95
2023-03-11T09:33:26.713Z,0.90
2023-03-11T09:35:53.853Z,0.90
2023-03-11T09:38:21.212Z,1.98
2023-03-11T09:41:09.321Z,0.88
2023-03-11T09:44:14.199Z,1.00
2023-03-11T09:47:19.745Z,1.10
2023-03-11T09:50:06.451Z,1.52
2023-03-11T09:52:46.650Z,1.15
2023-03-11T09:55:32.007Z,1.02
2023-03-11T09:58:03.039Z,0.80
2023-03-11T10:00:32.135Z,0.70
2023-03-11T10:03:02.833Z,0.70
2023-03-11T10:05:30.735Z,0.90
2023-03-11T10:08:31.211Z,0.70
2023-03-11T10:11:24.224Z,0.80
2023-03-11T10:14:23.981Z,0.90
2023-03-11T10:17:00.467Z,0.80
2023-03-11T10:19:43.849Z,0.68
2023-03-11T10:22:32.600Z,0.70
2023-03-11T10:25:11.497Z,0.90
2023-03-11T10:27:47.106Z,1.00
2023-03-11T10:30:37.597Z,0.90
2023-03-11T10:33:10.844Z,0.80
2023-03-11T10:35:41.059Z,0.90
2023-03-11T10:38:08.019Z,1.25
2023-03-11T10:40:40.568Z,1.00
2023-03-11T10:43:21.798Z,1.00
2023-03-11T10:45:51.191Z,0.90
2023-03-11T10:48:20.376Z,1.10
2023-03-11T10:51:04.037Z,0.82
2023-03-11T10:53:31.336Z,0.82
2023-03-11T10:55:59.788Z,0.90
2023-03-11T10:58:30.008Z,0.88
2023-03-11T11:01:05.352Z,0.73
2023-03-11T11:03:34.501Z,0.90
2023-03-11T11:06:06.803Z,0.85
2023-03-11T11:08:34.303Z,0.70
2023-03-11T11:11:03.845Z,1.00
2023-03-11T11:13:34.721Z,0.88
2023-03-11T11:16:16.984Z,1.00
2023-03-11T11:18:50.049Z,0.90
2023-03-11T11:21:41.337Z,0.90
2023-03-11T11:24:27.798Z,0.82
2023-03-11T11:27:22.406Z,0.80
2023-03-11T11:30:13.893Z,0.98
2023-03-11T11:32:42.372Z,1.00
2023-03-11T11:35:15.114Z,0.70
2023-03-11T11:37:46.302Z,0.95
2023-03-11T11:40:30.812Z,0.80
2023-03-11T11:43:05.340Z,0.95
2023-03-11T11:45:48.537Z,0.90
2023-03-11T11:48:24.376Z,0.80
2023-03-11T11:51:19.940Z,0.80
2023-03-11T11:53:58.301Z,1.00
2023-03-11T11:56:26.470Z,0.82
2023-03-11T11:58:54.743Z,0.90
2023-03-11T12:01:47.632Z,0.80
2023-03-11T12:04:33.075Z,1.05
2023-03-11T12:07:25.544Z,0.80
2023-03-11T12:10:23.884Z,0.88
2023-03-11T12:13:05.850Z,1.17
2023-03-11T12:15:42.160Z,2.20
2023-03-11T12:18:35.443Z,1.08
2023-03-11T12:21:27.450Z,2.20
2023-03-11T12:24:00.766Z,1.15
2023-03-11T12:26:34.068Z,0.88
2023-03-11T12:29:15.713Z,0.98
2023-03-11T12:31:45.129Z,1.20
2023-03-11T12:34:17.580Z,1.08
2023-03-11T12:36:47.002Z,0.90
2023-03-11T12:39:36.039Z,0.75
2023-03-11T12:42:38.743Z,0.70
2023-03-11T12:45:48.636Z,0.85
2023-03-11T12:48:27.484Z,1.45
2023-03-11T12:50:54.637Z,0.90
2023-03-11T12:53:45.841Z,0.70
2023-03-11T12:56:25.021Z,2.30
2023-03-11T12:59:25.465Z,3.25
2023-03-11T13:01:53.068Z,1.10
2023-03-11T13:04:40.416Z,1.10
2023-03-11T13:07:29.089Z,1.20
2023-03-11T13:10:12.220Z,0.90
2023-03-11T13:12:51.401Z,0.90
2023-03-11T13:15:18.409Z,2.33
2023-03-11T13:18:11.502Z,0.88
2023-03-11T13:20:44.380Z,1.20
2023-03-11T13:23:14.177Z,0.75
2023-03-11T13:26:05.482Z,1.23
2023-03-11T13:28:57.047Z,1.17
2023-03-11T13:31:59.823Z,0.90
2023-03-11T13:34:53.649Z,1.35
2023-03-11T13:37:38.601Z,0.90
2023-03-11T13:42:51.732Z,1.25
2023-03-11T13:45:29.433Z,1.10
2023-03-11T13:48:14.001Z,0.90
2023-03-11T13:50:47.976Z,0.80
2023-03-11T13:53:40.837Z,0.93
2023-03-11T13:56:18.844Z,0.77
2023-03-11T13:58:45.926Z,0.80
2023-03-11T14:01:17.322Z,0.90
2023-03-11T14:03:47.344Z,0.80
2023-03-11T14:06:20.067Z,0.85
2023-03-11T14:08:57.958Z,1.20
2023-03-11T14:11:29.569Z,1.00
2023-03-11T14:13:56.664Z,1.83
2023-03-11T14:16:28.902Z,1.55
2023-03-11T14:19:18.608Z,1.30
2023-03-11T14:21:47.351Z,1.20
2023-03-11T14:24:30.583Z,1.05
2023-03-11T14:27:00.644Z,1.00
2023-03-11T14:29:43.306Z,0.95
2023-03-11T14:32:29.483Z,1.20
2023-03-11T14:34:57.205Z,1.10
2023-03-11T14:37:38.514Z,0.90
2023-03-11T14:40:23.835Z,1.00
2023-03-11T14:42:53.907Z,0.82
2023-03-11T14:45:28.696Z,1.20
2023-03-11T14:48:18.157Z,1.10
2023-03-11T14:50:49.417Z,1.10
2023-03-11T14:53:30.922Z,1.00
2023-03-11T14:56:01.996Z,1.10
2023-03-11T14:58:43.276Z,1.15
2023-03-11T15:01:20.663Z,1.10
2023-03-11T15:03:59.596Z,0.82
2023-03-11T15:06:29.425Z,1.00
2023-03-11T15:09:10.505Z,1.20
2023-03-11T15:11:52.046Z,0.80
2023-03-11T15:14:26.126Z,0.85
2023-03-11T15:16:54.679Z,0.93
2023-03-11T15:19:27.867Z,0.98
2023-03-11T15:21:58.581Z,1.00
2023-03-11T15:24:31.311Z,1.02
2023-03-11T15:27:21.768Z,1.10
2023-03-11T15:29:53.103Z,1.08
2023-03-11T15:32:42.042Z,0.85
2023-03-11T15:35:10.636Z,1.20
2023-03-11T15:37:38.507Z,0.82
2023-03-11T15:40:20.111Z,1.20
2023-03-11T15:42:50.400Z,1.27
2023-03-11T15:45:19.754Z,1.25
2023-03-11T15:47:48.798Z,1.08
2023-03-11T15:50:24.148Z,1.35
2023-03-11T15:52:57.090Z,1.70
2023-03-11T15:55:26.035Z,2.13
2023-03-11T15:58:05.510Z,1.27
2023-03-11T16:00:33.014Z,1.38
2023-03-11T16:03:01.979Z,1.38
2023-03-11T16:05:29.497Z,1.63
2023-03-11T16:07:56.556Z,1.35
2023-03-11T16:10:25.727Z,2.20
2023-03-11T16:12:52.666Z,3.13
2023-03-11T16:15:29.661Z,2.40
2023-03-11T16:17:59.719Z,6.43
2023-03-11T16:20:31.408Z,3.42
2023-03-11T16:22:59.816Z,7.55
2023-03-11T16:25:33.647Z,2.03
2023-03-11T16:28:01.342Z,2.70
2023-03-11T16:30:30.223Z,1.70
2023-03-11T16:32:57.698Z,1.35
2023-03-11T16:35:24.921Z,1.48
2023-03-11T16:37:52.217Z,1.10
2023-03-11T16:40:28.267Z,1.10
2023-03-11T16:43:01.819Z,1.17
2023-03-11T16:45:29.359Z,1.30
2023-03-11T16:47:56.460Z,1.25
2023-03-11T16:50:24.524Z,1.40
2023-03-11T16:52:52.728Z,1.33
2023-03-11T16:55:20.562Z,1.50
2023-03-11T16:57:47.734Z,1.35
2023-03-11T17:00:15.649Z,1.40
2023-03-11T17:02:43.499Z,1.13
2023-03-11T17:05:11.670Z,1.10
2023-03-11T17:07:40.102Z,1.27
2023-03-11T17:10:10.561Z,1.60
2023-03-11T17:12:37.651Z,1.45
2023-03-11T17:15:06.390Z,1.35
2023-03-11T17:17:33.306Z,1.33
2023-03-11T17:20:00.574Z,1.63
2023-03-11T17:22:27.893Z,1.30
2023-03-11T17:24:55.172Z,1.27
2023-03-11T17:27:22.548Z,1.30
2023-03-11T17:29:49.825Z,1.50
2023-03-11T17:32:17.672Z,1.20
2023-03-11T17:34:44.962Z,1.42
2023-03-11T17:37:12.135Z,1.45
2023-03-11T17:39:39.151Z,1.73
2023-03-11T17:42:06.178Z,1.30
2023-03-11T17:44:48.399Z,1.35
2023-03-11T17:47:19.743Z,1.05
2023-03-11T17:49:48.050Z,1.20
2023-03-11T17:52:15.084Z,1.30
2023-03-11T17:54:42.262Z,1.38
2023-03-11T17:57:09.141Z,1.30
2023-03-11T17:59:36.161Z,1.50
2023-03-11T18:02:03.351Z,1.70
2023-03-11T18:04:31.255Z,1.25
2023-03-11T18:06:58.533Z,1.40
2023-03-11T18:09:25.564Z,1.80
2023-03-11T18:11:54.269Z,1.23
2023-03-11T18:14:21.217Z,1.65
2023-03-11T18:16:48.445Z,1.73
2023-03-11T18:19:15.413Z,1.38
2023-03-11T18:21:42.466Z,1.13
2023-03-11T18:24:09.584Z,1.20
2023-03-11T18:26:36.575Z,1.65
2023-03-11T18:29:03.635Z,2.53
2023-03-11T18:31:31.264Z,2.08
2023-03-11T18:34:02.096Z,2.00
2023-03-11T18:36:32.188Z,1.48
2023-03-11T18:39:00.287Z,2.00
2023-03-11T18:41:30.110Z,3.50
2023-03-11T18:43:57.977Z,5.88
2023-03-11T18:46:27.164Z,2.10
2023-03-11T18:48:56.871Z,3.80
2023-03-11T18:51:25.174Z,3.15
2023-03-11T18:53:52.284Z,3.40
2023-03-11T18:56:19.282Z,3.03
2023-03-11T18:58:46.473Z,2.50
2023-03-11T19:01:17.720Z,2.17
2023-03-11T19:03:52.764Z,2.95
2023-03-11T19:06:21.280Z,2.33
2023-03-11T19:08:49.035Z,2.25
2023-03-11T19:11:19.810Z,2.22
2023-03-11T19:13:48.217Z,2.00
2023-03-11T19:16:22.109Z,2.30
2023-03-11T19:18:50.118Z,2.28
2023-03-11T19:21:17.876Z,2.50
2023-03-11T19:23:45.615Z,2.35
2023-03-11T19:26:13.171Z,2.45
2023-03-11T19:28:40.349Z,2.40
2023-03-11T19:31:07.505Z,2.22
2023-03-11T19:33:35.347Z,2.55
2023-03-11T19:36:05.325Z,2.08
2023-03-11T19:38:32.935Z,2.10
2023-03-11T19:41:04.393Z,1.95
2023-03-11T19:43:32.362Z,2.10
2023-03-11T19:45:59.740Z,2.03
2023-03-11T19:48:26.964Z,1.90
2023-03-11T19:50:54.753Z,2.03
2023-03-11T19:53:22.868Z,2.10
2023-03-11T19:55:55.972Z,2.40
2023-03-11T19:58:24.877Z,2.67
2023-03-11T20:00:52.507Z,3.30
2023-03-11T20:03:21.792Z,4.15
2023-03-11T20:05:50.728Z,2.83
2023-03-11T20:08:20.276Z,3.15
2023-03-11T20:10:49.833Z,2.83
2023-03-11T20:13:20.062Z,3.00
2023-03-11T20:15:47.713Z,3.13
2023-03-11T20:18:15.478Z,3.45
2023-03-11T20:20:43.324Z,3.40
2023-03-11T20:23:11.603Z,3.28
2023-03-11T20:25:41.891Z,3.58
2023-03-11T20:28:11.732Z,3.53
2023-03-11T20:30:39.478Z,3.40
2023-03-11T20:33:07.574Z,3.70
2023-03-11T20:35:34.909Z,3.20
2023-03-11T20:38:02.957Z,3.30
2023-03-11T20:40:30.513Z,3.67
2023-03-11T20:42:57.661Z,4.78
2023-03-11T20:45:24.868Z,4.93
2023-03-11T20:47:53.988Z,5.20
2023-03-11T20:50:22.472Z,5.82
2023-03-11T20:52:50.604Z,6.90
2023-03-11T20:55:18.273Z,12.93
2023-03-11T20:57:45.375Z,13.45
2023-03-11T21:00:14.154Z,10.77
2023-03-11T21:02:42.851Z,9.93
2023-03-11T21:05:11.618Z,10.10
2023-03-11T21:07:39.364Z,11.13
2023-03-11T21:10:09.327Z,11.73
2023-03-11T21:12:36.604Z,12.77
2023-03-11T21:15:05.093Z,14.57
2023-03-11T21:17:33.612Z,13.20
2023-03-11T21:20:01.003Z,12.70
2023-03-11T21:22:28.094Z,11.27
2023-03-11T21:24:55.506Z,11.52
2023-03-11T21:27:26.648Z,12.80
2023-03-11T21:29:57.329Z,13.35
2023-03-11T21:32:25.477Z,11.63
2023-03-11T21:34:57.630Z,10.95
2023-03-11T21:37:25.964Z,9.90
2023-03-11T21:39:53.282Z,9.73
2023-03-11T21:42:21.144Z,7.65
2023-03-11T21:44:48.261Z,6.28
2023-03-11T21:47:15.240Z,5.63
2023-03-11T21:49:42.294Z,5.10
2023-03-11T21:52:09.548Z,5.13
2023-03-11T21:54:36.855Z,8.60
2023-03-11T21:57:04.157Z,5.55
2023-03-11T21:59:31.460Z,3.47
2023-03-11T22:02:02.707Z,3.63
2023-03-11T22:04:31.282Z,3.00
2023-03-11T22:06:59.258Z,3.40
2023-03-11T22:09:26.720Z,3.38
2023-03-11T22:11:56.166Z,3.28
2023-03-11T22:14:24.381Z,2.83
2023-03-11T22:16:52.032Z,3.33
2023-03-11T22:19:19.802Z,4.15
2023-03-11T22:21:48.569Z,4.90
2023-03-11T22:24:16.175Z,5.43
2023-03-11T22:26:43.308Z,5.00
2023-03-11T22:29:13.332Z,4.95
2023-03-11T22:31:41.099Z,5.00
2023-03-11T22:34:08.491Z,5.50
2023-03-11T22:36:35.637Z,5.55
2023-03-11T22:39:04.396Z,4.72
2023-03-11T22:41:32.471Z,5.18
2023-03-11T22:43:59.658Z,5.22
2023-03-11T22:46:27.344Z,4.55
2023-03-11T22:48:54.465Z,4.50
2023-03-11T22:51:21.707Z,4.82
2023-03-11T22:53:48.942Z,4.07
2023-03-11T22:56:17.722Z,4.13
2023-03-11T22:58:45.234Z,4.22
2023-03-11T23:01:12.907Z,3.72
2023-03-11T23:03:40.092Z,3.67
2023-03-11T23:06:09.181Z,4.15
2023-03-11T23:08:37.384Z,4.70
2023-03-11T23:11:07.221Z,4.07
2023-03-11T23:13:37.810Z,3.67
2023-03-11T23:16:10.513Z,3.92
2023-03-11T23:18:38.449Z,3.70
2023-03-11T23:21:05.645Z,3.90
2023-03-11T23:23:32.784Z,4.03
2023-03-11T23:25:59.860Z,3.88
2023-03-11T23:28:26.961Z,4.18
2023-03-11T23:30:54.159Z,3.58
2023-03-11T23:33:21.198Z,3.90
2023-03-11T23:35:48.180Z,3.85
2023-03-11T23:38:15.238Z,3.92
2023-03-11T23:40:42.364Z,3.38
2023-03-11T23:43:09.398Z,3.60
2023-03-11T23:45:36.645Z,3.60
2023-03-11T23:48:03.623Z,3.85
2023-03-11T23:50:30.675Z,3.80
2023-03-11T23:52:57.651Z,4.07
2023-03-11T23:55:24.622Z,4.10
2023-03-11T23:57:51.445Z,3.83
